sensor_id;sensor_type;location;lat;lon;timestamp;P1;durP1;ratioP1;P2;durP2;ratioP2
6667;SDS011;3370;47.712;9.082;2023-05-07T00:00:02;7.20;;;4.47;;
6667;SDS011;3370;47.712;9.082;2023-05-07T00:02:33;5.33;;;4.83;;
6667;SDS011;3370;47.712;9.082;2023-05-07T00:04:59;4.50;;;4.10;;
6667;SDS011;3370;47.712;9.082;2023-05-07T00:07:24;8.20;;;4.10;;
6667;SDS011;3370;47.712;9.082;2023-05-07T00:09:50;4.77;;;4.17;;
6667;SDS011;3370;47.712;9.082;2023-05-07T00:12:16;4.73;;;4.43;;
6667;SDS011;3370;47.712;9.082;2023-05-07T00:14:42;7.40;;;5.03;;
6667;SDS011;3370;47.712;9.082;2023-05-07T00:17:07;3.80;;;3.50;;
6667;SDS011;3370;47.712;9.082;2023-05-07T00:19:33;4.63;;;4.13;;
6667;SDS011;3370;47.712;9.082;2023-05-07T00:21:59;3.93;;;3.53;;
6667;SDS011;3370;47.712;9.082;2023-05-07T00:24:25;6.90;;;4.40;;
6667;SDS011;3370;47.712;9.082;2023-05-07T00:26:51;6.20;;;4.17;;
6667;SDS011;3370;47.712;9.082;2023-05-07T00:29:17;6.10;;;4.57;;
6667;SDS011;3370;47.712;9.082;2023-05-07T00:31:43;5.40;;;3.90;;
6667;SDS011;3370;47.712;9.082;2023-05-07T00:34:09;6.17;;;4.13;;
6667;SDS011;3370;47.712;9.082;2023-05-07T00:36:35;4.50;;;4.10;;
6667;SDS011;3370;47.712;9.082;2023-05-07T00:39:00;5.03;;;4.33;;
6667;SDS011;3370;47.712;9.082;2023-05-07T00:41:28;7.40;;;4.63;;
6667;SDS011;3370;47.712;9.082;2023-05-07T00:43:56;6.67;;;4.27;;
6667;SDS011;3370;47.712;9.082;2023-05-07T00:46:21;9.20;;;4.30;;
6667;SDS011;3370;47.712;9.082;2023-05-07T00:48:49;5.10;;;4.60;;
6667;SDS011;3370;47.712;9.082;2023-05-07T00:51:16;6.20;;;4.77;;
6667;SDS011;3370;47.712;9.082;2023-05-07T00:53:43;5.00;;;4.60;;
6667;SDS011;3370;47.712;9.082;2023-05-07T00:56:09;8.63;;;3.90;;
6667;SDS011;3370;47.712;9.082;2023-05-07T00:58:36;6.37;;;4.77;;
6667;SDS011;3370;47.712;9.082;2023-05-07T01:01:02;5.17;;;4.77;;
6667;SDS011;3370;47.712;9.082;2023-05-07T01:03:28;5.20;;;4.70;;
6667;SDS011;3370;47.712;9.082;2023-05-07T01:05:54;6.23;;;4.90;;
6667;SDS011;3370;47.712;9.082;2023-05-07T01:08:22;4.80;;;4.20;;
6667;SDS011;3370;47.712;9.082;2023-05-07T01:10:51;7.17;;;4.77;;
6667;SDS011;3370;47.712;9.082;2023-05-07T01:13:18;6.33;;;4.00;;
6667;SDS011;3370;47.712;9.082;2023-05-07T01:15:44;4.90;;;4.50;;
6667;SDS011;3370;47.712;9.082;2023-05-07T01:18:10;6.80;;;4.83;;
6667;SDS011;3370;47.712;9.082;2023-05-07T01:20:36;10.40;;;4.93;;
6667;SDS011;3370;47.712;9.082;2023-05-07T01:23:02;5.57;;;5.07;;
6667;SDS011;3370;47.712;9.082;2023-05-07T01:25:28;5.40;;;4.90;;
6667;SDS011;3370;47.712;9.082;2023-05-07T01:27:55;5.33;;;4.60;;
6667;SDS011;3370;47.712;9.082;2023-05-07T01:30:21;8.07;;;4.50;;
6667;SDS011;3370;47.712;9.082;2023-05-07T01:32:48;5.30;;;4.80;;
6667;SDS011;3370;47.712;9.082;2023-05-07T01:35:19;5.60;;;5.10;;
6667;SDS011;3370;47.712;9.082;2023-05-07T01:37:47;5.23;;;4.83;;
6667;SDS011;3370;47.712;9.082;2023-05-07T01:40:14;7.27;;;6.10;;
6667;SDS011;3370;47.712;9.082;2023-05-07T01:42:41;6.53;;;5.33;;
6667;SDS011;3370;47.712;9.082;2023-05-07T01:45:08;5.70;;;5.20;;
6667;SDS011;3370;47.712;9.082;2023-05-07T01:47:35;6.55;;;4.72;;
6667;SDS011;3370;47.712;9.082;2023-05-07T01:50:03;5.70;;;5.30;;
6667;SDS011;3370;47.712;9.082;2023-05-07T01:52:30;6.70;;;4.50;;
6667;SDS011;3370;47.712;9.082;2023-05-07T01:54:56;9.77;;;5.00;;
6667;SDS011;3370;47.712;9.082;2023-05-07T01:57:22;4.63;;;4.23;;
6667;SDS011;3370;47.712;9.082;2023-05-07T01:59:48;5.77;;;5.27;;
6667;SDS011;3370;47.712;9.082;2023-05-07T02:02:14;5.77;;;5.17;;
6667;SDS011;3370;47.712;9.082;2023-05-07T02:04:40;6.00;;;5.50;;
6667;SDS011;3370;47.712;9.082;2023-05-07T02:07:06;7.30;;;5.33;;
6667;SDS011;3370;47.712;9.082;2023-05-07T02:09:31;5.63;;;3.97;;
6667;SDS011;3370;47.712;9.082;2023-05-07T02:11:57;5.47;;;4.97;;
6667;SDS011;3370;47.712;9.082;2023-05-07T02:14:23;7.30;;;5.63;;
6667;SDS011;3370;47.712;9.082;2023-05-07T02:16:49;11.40;;;5.67;;
6667;SDS011;3370;47.712;9.082;2023-05-07T02:19:14;6.97;;;5.10;;
6667;SDS011;3370;47.712;9.082;2023-05-07T02:21:40;7.57;;;5.43;;
6667;SDS011;3370;47.712;9.082;2023-05-07T02:24:06;10.10;;;5.37;;
6667;SDS011;3370;47.712;9.082;2023-05-07T02:26:32;5.50;;;4.80;;
6667;SDS011;3370;47.712;9.082;2023-05-07T02:28:59;6.63;;;5.07;;
6667;SDS011;3370;47.712;9.082;2023-05-07T02:31:24;6.30;;;4.60;;
6667;SDS011;3370;47.712;9.082;2023-05-07T02:33:50;6.27;;;5.17;;
6667;SDS011;3370;47.712;9.082;2023-05-07T02:36:16;6.67;;;5.40;;
6667;SDS011;3370;47.712;9.082;2023-05-07T02:38:42;6.90;;;5.20;;
6667;SDS011;3370;47.712;9.082;2023-05-07T02:41:08;5.60;;;5.10;;
6667;SDS011;3370;47.712;9.082;2023-05-07T02:43:33;6.67;;;5.83;;
6667;SDS011;3370;47.712;9.082;2023-05-07T02:46:08;5.63;;;5.13;;
6667;SDS011;3370;47.712;9.082;2023-05-07T02:48:35;8.70;;;5.13;;
6667;SDS011;3370;47.712;9.082;2023-05-07T02:51:01;11.83;;;4.70;;
6667;SDS011;3370;47.712;9.082;2023-05-07T02:53:28;6.10;;;5.60;;
6667;SDS011;3370;47.712;9.082;2023-05-07T02:55:57;7.20;;;5.80;;
6667;SDS011;3370;47.712;9.082;2023-05-07T02:58:25;6.00;;;5.40;;
6667;SDS011;3370;47.712;9.082;2023-05-07T03:00:51;6.00;;;5.20;;
6667;SDS011;3370;47.712;9.082;2023-05-07T03:03:19;5.67;;;5.00;;
6667;SDS011;3370;47.712;9.082;2023-05-07T03:05:45;6.13;;;4.97;;
6667;SDS011;3370;47.712;9.082;2023-05-07T03:08:11;5.53;;;5.03;;
6667;SDS011;3370;47.712;9.082;2023-05-07T03:10:37;5.90;;;5.30;;
6667;SDS011;3370;47.712;9.082;2023-05-07T03:13:03;6.37;;;5.20;;
6667;SDS011;3370;47.712;9.082;2023-05-07T03:15:29;5.80;;;5.30;;
6667;SDS011;3370;47.712;9.082;2023-05-07T03:17:55;5.53;;;5.13;;
6667;SDS011;3370;47.712;9.082;2023-05-07T03:20:21;10.33;;;4.80;;
6667;SDS011;3370;47.712;9.082;2023-05-07T03:22:47;4.67;;;4.27;;
6667;SDS011;3370;47.712;9.082;2023-05-07T03:25:13;5.17;;;4.77;;
6667;SDS011;3370;47.712;9.082;2023-05-07T03:27:39;8.40;;;5.10;;
6667;SDS011;3370;47.712;9.082;2023-05-07T03:30:07;6.40;;;5.50;;
6667;SDS011;3370;47.712;9.082;2023-05-07T03:32:33;8.90;;;5.30;;
6667;SDS011;3370;47.712;9.082;2023-05-07T03:35:00;6.23;;;5.63;;
6667;SDS011;3370;47.712;9.082;2023-05-07T03:37:27;5.77;;;5.23;;
6667;SDS011;3370;47.712;9.082;2023-05-07T03:39:53;5.63;;;5.10;;
6667;SDS011;3370;47.712;9.082;2023-05-07T03:42:19;6.17;;;5.57;;
6667;SDS011;3370;47.712;9.082;2023-05-07T03:44:44;4.70;;;4.40;;
6667;SDS011;3370;47.712;9.082;2023-05-07T03:47:10;7.57;;;5.30;;
6667;SDS011;3370;47.712;9.082;2023-05-07T03:49:36;6.40;;;5.70;;
6667;SDS011;3370;47.712;9.082;2023-05-07T03:52:02;18.23;;;5.90;;
6667;SDS011;3370;47.712;9.082;2023-05-07T03:54:28;5.43;;;4.80;;
6667;SDS011;3370;47.712;9.082;2023-05-07T03:56:55;8.47;;;5.70;;
6667;SDS011;3370;47.712;9.082;2023-05-07T03:59:21;6.97;;;6.27;;
6667;SDS011;3370;47.712;9.082;2023-05-07T04:01:47;6.70;;;6.10;;
6667;SDS011;3370;47.712;9.082;2023-05-07T04:04:16;6.10;;;5.60;;
6667;SDS011;3370;47.712;9.082;2023-05-07T04:06:42;6.33;;;5.83;;
6667;SDS011;3370;47.712;9.082;2023-05-07T04:09:08;6.37;;;5.77;;
6667;SDS011;3370;47.712;9.082;2023-05-07T04:11:34;6.27;;;5.70;;
6667;SDS011;3370;47.712;9.082;2023-05-07T04:14:00;8.53;;;6.30;;
6667;SDS011;3370;47.712;9.082;2023-05-07T04:16:26;10.20;;;5.80;;
6667;SDS011;3370;47.712;9.082;2023-05-07T04:18:52;9.50;;;6.13;;
6667;SDS011;3370;47.712;9.082;2023-05-07T04:21:18;7.13;;;6.00;;
6667;SDS011;3370;47.712;9.082;2023-05-07T04:23:46;8.13;;;6.23;;
6667;SDS011;3370;47.712;9.082;2023-05-07T04:26:13;7.03;;;6.40;;
6667;SDS011;3370;47.712;9.082;2023-05-07T04:28:39;6.53;;;5.57;;
6667;SDS011;3370;47.712;9.082;2023-05-07T04:31:05;8.37;;;6.77;;
6667;SDS011;3370;47.712;9.082;2023-05-07T04:33:31;7.20;;;5.03;;
6667;SDS011;3370;47.712;9.082;2023-05-07T04:35:58;6.97;;;6.33;;
6667;SDS011;3370;47.712;9.082;2023-05-07T04:38:31;11.77;;;6.27;;
6667;SDS011;3370;47.712;9.082;2023-05-07T04:40:57;7.33;;;6.40;;
6667;SDS011;3370;47.712;9.082;2023-05-07T04:43:29;7.10;;;5.70;;
6667;SDS011;3370;47.712;9.082;2023-05-07T04:45:54;7.63;;;6.30;;
6667;SDS011;3370;47.712;9.082;2023-05-07T04:48:20;7.13;;;5.93;;
6667;SDS011;3370;47.712;9.082;2023-05-07T04:50:49;8.10;;;6.50;;
6667;SDS011;3370;47.712;9.082;2023-05-07T04:53:15;6.10;;;5.50;;
6667;SDS011;3370;47.712;9.082;2023-05-07T04:55:42;6.90;;;6.20;;
6667;SDS011;3370;47.712;9.082;2023-05-07T04:58:09;6.53;;;5.93;;
6667;SDS011;3370;47.712;9.082;2023-05-07T05:00:37;7.60;;;6.90;;
6667;SDS011;3370;47.712;9.082;2023-05-07T05:03:04;11.67;;;6.53;;
6667;SDS011;3370;47.712;9.082;2023-05-07T05:05:33;6.43;;;5.83;;
6667;SDS011;3370;47.712;9.082;2023-05-07T05:07:59;7.13;;;6.60;;
6667;SDS011;3370;47.712;9.082;2023-05-07T05:10:25;9.77;;;6.70;;
6667;SDS011;3370;47.712;9.082;2023-05-07T05:12:51;9.00;;;5.97;;
6667;SDS011;3370;47.712;9.082;2023-05-07T05:15:17;8.20;;;6.67;;
6667;SDS011;3370;47.712;9.082;2023-05-07T05:17:42;7.90;;;6.90;;
6667;SDS011;3370;47.712;9.082;2023-05-07T05:20:09;9.07;;;5.83;;
6667;SDS011;3370;47.712;9.082;2023-05-07T05:22:36;7.00;;;6.30;;
6667;SDS011;3370;47.712;9.082;2023-05-07T05:25:02;7.93;;;6.30;;
6667;SDS011;3370;47.712;9.082;2023-05-07T05:27:28;7.57;;;6.90;;
6667;SDS011;3370;47.712;9.082;2023-05-07T05:29:54;8.23;;;7.53;;
6667;SDS011;3370;47.712;9.082;2023-05-07T05:32:20;9.23;;;8.33;;
6667;SDS011;3370;47.712;9.082;2023-05-07T05:34:46;9.43;;;7.50;;
6667;SDS011;3370;47.712;9.082;2023-05-07T05:37:12;10.53;;;7.13;;
6667;SDS011;3370;47.712;9.082;2023-05-07T05:39:38;9.90;;;7.70;;
6667;SDS011;3370;47.712;9.082;2023-05-07T05:42:03;8.40;;;7.70;;
6667;SDS011;3370;47.712;9.082;2023-05-07T05:44:29;8.47;;;7.73;;
6667;SDS011;3370;47.712;9.082;2023-05-07T05:46:55;11.50;;;7.65;;
6667;SDS011;3370;47.712;9.082;2023-05-07T05:49:22;9.83;;;8.87;;
6667;SDS011;3370;47.712;9.082;2023-05-07T05:51:48;9.40;;;8.50;;
6667;SDS011;3370;47.712;9.082;2023-05-07T05:54:14;9.47;;;8.67;;
6667;SDS011;3370;47.712;9.082;2023-05-07T05:56:40;11.40;;;7.97;;
6667;SDS011;3370;47.712;9.082;2023-05-07T05:59:07;9.13;;;7.97;;
6667;SDS011;3370;47.712;9.082;2023-05-07T06:01:32;10.27;;;8.77;;
6667;SDS011;3370;47.712;9.082;2023-05-07T06:03:58;13.00;;;8.60;;
6667;SDS011;3370;47.712;9.082;2023-05-07T06:06:24;10.20;;;9.20;;
6667;SDS011;3370;47.712;9.082;2023-05-07T06:08:50;14.83;;;8.60;;
6667;SDS011;3370;47.712;9.082;2023-05-07T06:11:16;10.67;;;9.03;;
6667;SDS011;3370;47.712;9.082;2023-05-07T06:13:42;14.43;;;8.73;;
6667;SDS011;3370;47.712;9.082;2023-05-07T06:16:08;9.00;;;7.40;;
6667;SDS011;3370;47.712;9.082;2023-05-07T06:18:33;8.63;;;7.80;;
6667;SDS011;3370;47.712;9.082;2023-05-07T06:21:01;8.57;;;7.70;;
6667;SDS011;3370;47.712;9.082;2023-05-07T06:23:27;11.30;;;8.37;;
6667;SDS011;3370;47.712;9.082;2023-05-07T06:25:53;10.37;;;9.23;;
6667;SDS011;3370;47.712;9.082;2023-05-07T06:28:18;11.37;;;9.27;;
6667;SDS011;3370;47.712;9.082;2023-05-07T06:30:45;14.20;;;9.00;;
6667;SDS011;3370;47.712;9.082;2023-05-07T06:33:10;10.97;;;8.50;;
6667;SDS011;3370;47.712;9.082;2023-05-07T06:35:36;15.67;;;9.53;;
6667;SDS011;3370;47.712;9.082;2023-05-07T06:38:02;9.10;;;8.27;;
6667;SDS011;3370;47.712;9.082;2023-05-07T06:40:28;19.40;;;7.90;;
6667;SDS011;3370;47.712;9.082;2023-05-07T06:42:53;11.53;;;9.03;;
6667;SDS011;3370;47.712;9.082;2023-05-07T06:45:19;9.57;;;8.57;;
6667;SDS011;3370;47.712;9.082;2023-05-07T06:47:45;10.57;;;8.93;;
6667;SDS011;3370;47.712;9.082;2023-05-07T06:50:11;9.23;;;8.33;;
6667;SDS011;3370;47.712;9.082;2023-05-07T06:52:37;9.57;;;8.60;;
6667;SDS011;3370;47.712;9.082;2023-05-07T06:55:03;10.60;;;9.00;;
6667;SDS011;3370;47.712;9.082;2023-05-07T06:57:29;12.70;;;9.23;;
6667;SDS011;3370;47.712;9.082;2023-05-07T06:59:55;9.30;;;8.47;;
6667;SDS011;3370;47.712;9.082;2023-05-07T07:02:21;10.10;;;9.10;;
6667;SDS011;3370;47.712;9.082;2023-05-07T07:04:47;13.83;;;9.80;;
6667;SDS011;3370;47.712;9.082;2023-05-07T07:07:13;10.50;;;8.90;;
6667;SDS011;3370;47.712;9.082;2023-05-07T07:09:38;9.60;;;8.73;;
6667;SDS011;3370;47.712;9.082;2023-05-07T07:12:04;11.83;;;9.60;;
6667;SDS011;3370;47.712;9.082;2023-05-07T07:14:30;9.10;;;7.60;;
6667;SDS011;3370;47.712;9.082;2023-05-07T07:16:56;11.00;;;9.73;;
6667;SDS011;3370;47.712;9.082;2023-05-07T07:19:22;14.77;;;9.03;;
6667;SDS011;3370;47.712;9.082;2023-05-07T07:21:47;10.37;;;9.27;;
6667;SDS011;3370;47.712;9.082;2023-05-07T07:24:13;11.87;;;9.40;;
6667;SDS011;3370;47.712;9.082;2023-05-07T07:26:44;14.70;;;10.27;;
6667;SDS011;3370;47.712;9.082;2023-05-07T07:29:10;10.27;;;8.93;;
6667;SDS011;3370;47.712;9.082;2023-05-07T07:31:35;13.10;;;9.30;;
6667;SDS011;3370;47.712;9.082;2023-05-07T07:34:01;10.37;;;8.33;;
6667;SDS011;3370;47.712;9.082;2023-05-07T07:36:27;10.97;;;8.63;;
6667;SDS011;3370;47.712;9.082;2023-05-07T07:38:53;14.47;;;9.63;;
6667;SDS011;3370;47.712;9.082;2023-05-07T07:41:19;11.80;;;9.27;;
6667;SDS011;3370;47.712;9.082;2023-05-07T07:43:45;16.13;;;9.50;;
6667;SDS011;3370;47.712;9.082;2023-05-07T07:46:11;13.47;;;9.47;;
6667;SDS011;3370;47.712;9.082;2023-05-07T07:48:37;12.07;;;8.40;;
6667;SDS011;3370;47.712;9.082;2023-05-07T07:51:03;13.33;;;9.00;;
6667;SDS011;3370;47.712;9.082;2023-05-07T07:53:29;13.30;;;9.20;;
6667;SDS011;3370;47.712;9.082;2023-05-07T07:55:55;9.73;;;8.80;;
6667;SDS011;3370;47.712;9.082;2023-05-07T07:58:21;9.40;;;8.50;;
6667;SDS011;3370;47.712;9.082;2023-05-07T08:00:47;11.17;;;8.70;;
6667;SDS011;3370;47.712;9.082;2023-05-07T08:03:13;9.67;;;8.77;;
6667;SDS011;3370;47.712;9.082;2023-05-07T08:05:41;11.90;;;9.10;;
6667;SDS011;3370;47.712;9.082;2023-05-07T08:08:07;8.80;;;7.90;;
6667;SDS011;3370;47.712;9.082;2023-05-07T08:10:33;9.97;;;9.00;;
6667;SDS011;3370;47.712;9.082;2023-05-07T08:13:00;10.43;;;9.20;;
6667;SDS011;3370;47.712;9.082;2023-05-07T08:15:26;10.98;;;9.10;;
6667;SDS011;3370;47.712;9.082;2023-05-07T08:17:52;10.67;;;9.57;;
6667;SDS011;3370;47.712;9.082;2023-05-07T08:20:18;10.30;;;9.30;;
6667;SDS011;3370;47.712;9.082;2023-05-07T08:22:44;10.33;;;8.47;;
6667;SDS011;3370;47.712;9.082;2023-05-07T08:25:10;10.10;;;9.10;;
6667;SDS011;3370;47.712;9.082;2023-05-07T08:27:36;9.13;;;7.83;;
6667;SDS011;3370;47.712;9.082;2023-05-07T08:30:02;9.97;;;7.70;;
6667;SDS011;3370;47.712;9.082;2023-05-07T08:32:29;8.03;;;7.13;;
6667;SDS011;3370;47.712;9.082;2023-05-07T08:34:54;7.90;;;7.20;;
6667;SDS011;3370;47.712;9.082;2023-05-07T08:37:20;8.77;;;7.83;;
6667;SDS011;3370;47.712;9.082;2023-05-07T08:39:46;7.67;;;7.07;;
6667;SDS011;3370;47.712;9.082;2023-05-07T08:42:11;10.97;;;7.07;;
6667;SDS011;3370;47.712;9.082;2023-05-07T08:44:41;10.20;;;7.03;;
6667;SDS011;3370;47.712;9.082;2023-05-07T08:47:12;7.60;;;6.83;;
6667;SDS011;3370;47.712;9.082;2023-05-07T08:49:38;7.17;;;6.47;;
6667;SDS011;3370;47.712;9.082;2023-05-07T08:52:04;7.93;;;6.13;;
6667;SDS011;3370;47.712;9.082;2023-05-07T08:54:30;7.23;;;6.23;;
6667;SDS011;3370;47.712;9.082;2023-05-07T08:56:57;9.90;;;6.27;;
6667;SDS011;3370;47.712;9.082;2023-05-07T08:59:22;7.37;;;5.87;;
6667;SDS011;3370;47.712;9.082;2023-05-07T09:01:48;6.00;;;5.43;;
6667;SDS011;3370;47.712;9.082;2023-05-07T09:04:14;9.40;;;6.33;;
6667;SDS011;3370;47.712;9.082;2023-05-07T09:06:40;6.20;;;5.63;;
6667;SDS011;3370;47.712;9.082;2023-05-07T09:09:06;8.23;;;5.37;;
6667;SDS011;3370;47.712;9.082;2023-05-07T09:11:33;9.07;;;6.50;;
6667;SDS011;3370;47.712;9.082;2023-05-07T09:13:58;9.03;;;5.93;;
6667;SDS011;3370;47.712;9.082;2023-05-07T09:16:26;9.97;;;6.07;;
6667;SDS011;3370;47.712;9.082;2023-05-07T09:18:55;15.60;;;6.00;;
6667;SDS011;3370;47.712;9.082;2023-05-07T09:21:23;5.43;;;4.93;;
6667;SDS011;3370;47.712;9.082;2023-05-07T09:23:52;7.70;;;6.10;;
6667;SDS011;3370;47.712;9.082;2023-05-07T09:26:23;9.00;;;6.37;;
6667;SDS011;3370;47.712;9.082;2023-05-07T09:28:49;7.30;;;6.60;;
6667;SDS011;3370;47.712;9.082;2023-05-07T09:31:16;9.97;;;6.80;;
6667;SDS011;3370;47.712;9.082;2023-05-07T09:33:42;7.47;;;5.20;;
6667;SDS011;3370;47.712;9.082;2023-05-07T09:36:08;7.53;;;4.70;;
6667;SDS011;3370;47.712;9.082;2023-05-07T09:38:35;4.50;;;4.10;;
6667;SDS011;3370;47.712;9.082;2023-05-07T09:41:09;7.70;;;5.87;;
6667;SDS011;3370;47.712;9.082;2023-05-07T09:43:38;4.07;;;3.77;;
6667;SDS011;3370;47.712;9.082;2023-05-07T09:46:11;6.47;;;4.30;;
6667;SDS011;3370;47.712;9.082;2023-05-07T09:48:40;4.90;;;4.13;;
6667;SDS011;3370;47.712;9.082;2023-05-07T09:51:18;6.50;;;4.20;;
6667;SDS011;3370;47.712;9.082;2023-05-07T09:53:53;5.43;;;4.20;;
6667;SDS011;3370;47.712;9.082;2023-05-07T09:56:21;6.30;;;4.37;;
6667;SDS011;3370;47.712;9.082;2023-05-07T09:58:48;4.27;;;3.90;;
6667;SDS011;3370;47.712;9.082;2023-05-07T10:01:16;8.73;;;5.00;;
6667;SDS011;3370;47.712;9.082;2023-05-07T10:03:44;7.83;;;5.00;;
6667;SDS011;3370;47.712;9.082;2023-05-07T10:06:11;6.20;;;5.20;;
6667;SDS011;3370;47.712;9.082;2023-05-07T10:08:39;4.67;;;4.27;;
6667;SDS011;3370;47.712;9.082;2023-05-07T10:11:07;9.83;;;5.60;;
6667;SDS011;3370;47.712;9.082;2023-05-07T10:13:34;5.53;;;4.90;;
6667;SDS011;3370;47.712;9.082;2023-05-07T10:16:05;6.50;;;5.03;;
6667;SDS011;3370;47.712;9.082;2023-05-07T10:18:31;5.73;;;5.23;;
6667;SDS011;3370;47.712;9.082;2023-05-07T10:21:07;8.60;;;4.80;;
6667;SDS011;3370;47.712;9.082;2023-05-07T10:23:39;7.90;;;5.50;;
6667;SDS011;3370;47.712;9.082;2023-05-07T10:26:06;6.60;;;4.97;;
6667;SDS011;3370;47.712;9.082;2023-05-07T10:28:34;6.70;;;4.73;;
6667;SDS011;3370;47.712;9.082;2023-05-07T10:31:10;6.53;;;5.03;;
6667;SDS011;3370;47.712;9.082;2023-05-07T10:34:13;5.40;;;4.90;;
6667;SDS011;3370;47.712;9.082;2023-05-07T10:36:47;4.60;;;4.20;;
6667;SDS011;3370;47.712;9.082;2023-05-07T10:39:15;5.40;;;5.00;;
6667;SDS011;3370;47.712;9.082;2023-05-07T10:41:41;6.70;;;4.70;;
6667;SDS011;3370;47.712;9.082;2023-05-07T10:44:06;4.60;;;4.03;;
6667;SDS011;3370;47.712;9.082;2023-05-07T10:46:32;4.27;;;3.87;;
6667;SDS011;3370;47.712;9.082;2023-05-07T10:51:26;5.13;;;4.63;;
6667;SDS011;3370;47.712;9.082;2023-05-07T10:54:18;6.73;;;4.27;;
6667;SDS011;3370;47.712;9.082;2023-05-07T10:56:44;5.70;;;4.13;;
6667;SDS011;3370;47.712;9.082;2023-05-07T11:04:28;12.33;;;4.80;;
6667;SDS011;3370;47.712;9.082;2023-05-07T11:12:16;4.40;;;3.77;;
6667;SDS011;3370;47.712;9.082;2023-05-07T11:15:12;3.80;;;3.50;;
6667;SDS011;3370;47.712;9.082;2023-05-07T11:20:45;4.57;;;4.07;;
6667;SDS011;3370;47.712;9.082;2023-05-07T11:26:03;4.53;;;3.50;;
6667;SDS011;3370;47.712;9.082;2023-05-07T11:28:31;6.80;;;4.03;;
6667;SDS011;3370;47.712;9.082;2023-05-07T11:31:06;5.93;;;4.10;;
6667;SDS011;3370;47.712;9.082;2023-05-07T11:33:34;3.97;;;3.60;;
6667;SDS011;3370;47.712;9.082;2023-05-07T11:36:04;4.33;;;3.93;;
6667;SDS011;3370;47.712;9.082;2023-05-07T11:38:36;4.87;;;3.80;;
6667;SDS011;3370;47.712;9.082;2023-05-07T11:41:03;4.50;;;3.57;;
6667;SDS011;3370;47.712;9.082;2023-05-07T11:43:30;6.57;;;3.80;;
6667;SDS011;3370;47.712;9.082;2023-05-07T11:48:36;5.07;;;3.50;;
6667;SDS011;3370;47.712;9.082;2023-05-07T11:51:03;3.83;;;3.53;;
6667;SDS011;3370;47.712;9.082;2023-05-07T11:53:37;5.87;;;3.00;;
6667;SDS011;3370;47.712;9.082;2023-05-07T11:56:06;9.43;;;3.53;;
6667;SDS011;3370;47.712;9.082;2023-05-07T11:58:33;4.23;;;3.27;;
6667;SDS011;3370;47.712;9.082;2023-05-07T12:00:59;5.00;;;3.80;;
6667;SDS011;3370;47.712;9.082;2023-05-07T12:03:25;3.90;;;3.50;;
6667;SDS011;3370;47.712;9.082;2023-05-07T12:05:51;4.30;;;3.37;;
6667;SDS011;3370;47.712;9.082;2023-05-07T12:08:17;4.60;;;3.57;;
6667;SDS011;3370;47.712;9.082;2023-05-07T12:10:44;4.90;;;3.23;;
6667;SDS011;3370;47.712;9.082;2023-05-07T12:13:19;3.90;;;3.33;;
6667;SDS011;3370;47.712;9.082;2023-05-07T12:15:53;5.13;;;3.60;;
6667;SDS011;3370;47.712;9.082;2023-05-07T12:18:22;3.50;;;3.20;;
6667;SDS011;3370;47.712;9.082;2023-05-07T12:20:49;13.23;;;3.93;;
6667;SDS011;3370;47.712;9.082;2023-05-07T12:23:16;3.47;;;3.13;;
6667;SDS011;3370;47.712;9.082;2023-05-07T12:25:43;3.80;;;3.60;;
6667;SDS011;3370;47.712;9.082;2023-05-07T12:28:15;4.60;;;3.33;;
6667;SDS011;3370;47.712;9.082;2023-05-07T12:30:42;3.80;;;3.50;;
6667;SDS011;3370;47.712;9.082;2023-05-07T12:33:11;7.20;;;4.07;;
6667;SDS011;3370;47.712;9.082;2023-05-07T12:35:40;4.77;;;3.57;;
6667;SDS011;3370;47.712;9.082;2023-05-07T12:38:08;5.80;;;3.50;;
6667;SDS011;3370;47.712;9.082;2023-05-07T12:43:02;5.03;;;3.70;;
6667;SDS011;3370;47.712;9.082;2023-05-07T12:45:27;8.30;;;3.90;;
6667;SDS011;3370;47.712;9.082;2023-05-07T12:47:53;6.03;;;4.20;;
6667;SDS011;3370;47.712;9.082;2023-05-07T12:50:19;4.27;;;3.20;;
6667;SDS011;3370;47.712;9.082;2023-05-07T12:52:47;3.87;;;3.57;;
6667;SDS011;3370;47.712;9.082;2023-05-07T12:55:14;6.40;;;3.90;;
6667;SDS011;3370;47.712;9.082;2023-05-07T12:57:41;3.63;;;3.30;;
6667;SDS011;3370;47.712;9.082;2023-05-07T13:00:18;3.30;;;3.10;;
6667;SDS011;3370;47.712;9.082;2023-05-07T13:03:01;4.17;;;3.77;;
6667;SDS011;3370;47.712;9.082;2023-05-07T13:05:27;3.87;;;3.57;;
6667;SDS011;3370;47.712;9.082;2023-05-07T13:07:53;3.50;;;3.20;;
6667;SDS011;3370;47.712;9.082;2023-05-07T13:10:21;4.37;;;3.53;;
6667;SDS011;3370;47.712;9.082;2023-05-07T13:12:48;6.23;;;4.00;;
6667;SDS011;3370;47.712;9.082;2023-05-07T13:15:15;5.90;;;4.17;;
6667;SDS011;3370;47.712;9.082;2023-05-07T13:17:41;5.00;;;4.00;;
6667;SDS011;3370;47.712;9.082;2023-05-07T13:20:08;4.87;;;3.63;;
6667;SDS011;3370;47.712;9.082;2023-05-07T13:22:36;6.23;;;3.57;;
6667;SDS011;3370;47.712;9.082;2023-05-07T13:25:02;6.20;;;3.90;;
6667;SDS011;3370;47.712;9.082;2023-05-07T13:27:28;3.87;;;3.23;;
6667;SDS011;3370;47.712;9.082;2023-05-07T13:29:55;4.77;;;3.47;;
6667;SDS011;3370;47.712;9.082;2023-05-07T13:32:22;3.90;;;3.20;;
6667;SDS011;3370;47.712;9.082;2023-05-07T13:34:48;3.57;;;3.20;;
6667;SDS011;3370;47.712;9.082;2023-05-07T13:37:13;5.60;;;3.77;;
6667;SDS011;3370;47.712;9.082;2023-05-07T13:39:39;3.30;;;3.10;;
6667;SDS011;3370;47.712;9.082;2023-05-07T13:42:06;3.97;;;3.40;;
6667;SDS011;3370;47.712;9.082;2023-05-07T13:44:32;6.90;;;4.07;;
6667;SDS011;3370;47.712;9.082;2023-05-07T13:46:58;3.73;;;3.37;;
6667;SDS011;3370;47.712;9.082;2023-05-07T13:49:24;17.57;;;3.67;;
6667;SDS011;3370;47.712;9.082;2023-05-07T13:51:49;6.20;;;3.23;;
6667;SDS011;3370;47.712;9.082;2023-05-07T13:54:15;6.03;;;3.60;;
6667;SDS011;3370;47.712;9.082;2023-05-07T13:56:41;8.37;;;4.80;;
6667;SDS011;3370;47.712;9.082;2023-05-07T13:59:07;3.27;;;3.00;;
6667;SDS011;3370;47.712;9.082;2023-05-07T14:01:33;2.70;;;2.50;;
6667;SDS011;3370;47.712;9.082;2023-05-07T14:03:59;4.53;;;2.97;;
6667;SDS011;3370;47.712;9.082;2023-05-07T14:06:25;2.80;;;2.23;;
6667;SDS011;3370;47.712;9.082;2023-05-07T14:08:51;2.53;;;2.33;;
6667;SDS011;3370;47.712;9.082;2023-05-07T14:11:16;3.57;;;2.20;;
6667;SDS011;3370;47.712;9.082;2023-05-07T14:13:42;4.40;;;2.90;;
6667;SDS011;3370;47.712;9.082;2023-05-07T14:16:08;9.57;;;3.37;;
6667;SDS011;3370;47.712;9.082;2023-05-07T14:18:34;5.83;;;2.87;;
6667;SDS011;3370;47.712;9.082;2023-05-07T14:21:01;10.43;;;3.43;;
6667;SDS011;3370;47.712;9.082;2023-05-07T14:23:31;7.00;;;3.60;;
6667;SDS011;3370;47.712;9.082;2023-05-07T14:25:56;4.13;;;3.13;;
6667;SDS011;3370;47.712;9.082;2023-05-07T14:28:23;7.43;;;3.40;;
6667;SDS011;3370;47.712;9.082;2023-05-07T14:30:49;5.63;;;3.37;;
6667;SDS011;3370;47.712;9.082;2023-05-07T14:33:14;3.63;;;3.00;;
6667;SDS011;3370;47.712;9.082;2023-05-07T14:35:40;3.40;;;2.40;;
6667;SDS011;3370;47.712;9.082;2023-05-07T14:38:13;4.60;;;3.37;;
6667;SDS011;3370;47.712;9.082;2023-05-07T14:40:40;4.40;;;3.00;;
6667;SDS011;3370;47.712;9.082;2023-05-07T14:43:06;3.77;;;2.80;;
6667;SDS011;3370;47.712;9.082;2023-05-07T14:45:32;3.90;;;2.97;;
6667;SDS011;3370;47.712;9.082;2023-05-07T14:47:57;4.13;;;2.70;;
6667;SDS011;3370;47.712;9.082;2023-05-07T14:50:23;4.97;;;3.10;;
6667;SDS011;3370;47.712;9.082;2023-05-07T14:52:49;6.67;;;2.53;;
6667;SDS011;3370;47.712;9.082;2023-05-07T14:55:15;2.80;;;2.60;;
6667;SDS011;3370;47.712;9.082;2023-05-07T14:57:41;5.00;;;2.40;;
6667;SDS011;3370;47.712;9.082;2023-05-07T15:00:07;3.27;;;2.10;;
6667;SDS011;3370;47.712;9.082;2023-05-07T15:02:34;3.60;;;2.50;;
6667;SDS011;3370;47.712;9.082;2023-05-07T15:05:00;1.90;;;1.80;;
6667;SDS011;3370;47.712;9.082;2023-05-07T15:07:26;4.60;;;2.30;;
6667;SDS011;3370;47.712;9.082;2023-05-07T15:09:52;5.97;;;2.50;;
6667;SDS011;3370;47.712;9.082;2023-05-07T15:12:17;3.23;;;2.57;;
6667;SDS011;3370;47.712;9.082;2023-05-07T15:14:43;2.27;;;1.83;;
6667;SDS011;3370;47.712;9.082;2023-05-07T15:17:09;2.10;;;1.90;;
6667;SDS011;3370;47.712;9.082;2023-05-07T15:19:35;2.17;;;1.90;;
6667;SDS011;3370;47.712;9.082;2023-05-07T15:22:00;3.00;;;2.40;;
6667;SDS011;3370;47.712;9.082;2023-05-07T15:24:29;3.03;;;2.40;;
6667;SDS011;3370;47.712;9.082;2023-05-07T15:26:55;2.97;;;2.27;;
6667;SDS011;3370;47.712;9.082;2023-05-07T15:29:23;4.97;;;2.30;;
6667;SDS011;3370;47.712;9.082;2023-05-07T15:31:49;4.97;;;2.70;;
6667;SDS011;3370;47.712;9.082;2023-05-07T15:34:16;3.70;;;2.17;;